createdAt,value
2022-11-24T00:01:21.884Z,18.20
2022-11-24T00:03:55.947Z,17.27
2022-11-24T00:06:25.037Z,15.50
2022-11-24T00:08:53.770Z,16.40
2022-11-24T00:11:23.830Z,15.87
2022-11-24T00:13:52.693Z,15.33
2022-11-24T00:16:23.633Z,15.03
2022-11-24T00:18:55.272Z,15.63
2022-11-24T00:21:24.537Z,15.60
2022-11-24T00:23:53.309Z,16.83
2022-11-24T00:26:23.464Z,16.13
2022-11-24T00:28:53.320Z,16.33
2022-11-24T00:31:23.950Z,17.33
2022-11-24T00:33:56.250Z,16.63
2022-11-24T00:36:26.693Z,16.73
2022-11-24T00:38:56.077Z,16.07
2022-11-24T00:41:24.656Z,16.83
2022-11-24T00:43:53.933Z,16.33
2022-11-24T00:46:22.749Z,17.23
2022-11-24T00:48:51.786Z,17.47
2022-11-24T00:51:23.777Z,17.80
2022-11-24T00:53:53.222Z,17.00
2022-11-24T00:56:21.417Z,18.17
2022-11-24T00:58:50.577Z,16.40
2022-11-24T01:01:20.997Z,16.57
2022-11-24T01:03:49.620Z,16.03
2022-11-24T01:06:20.273Z,16.33
2022-11-24T01:08:50.050Z,15.07
2022-11-24T01:11:20.327Z,16.00
2022-11-24T01:13:50.175Z,15.83
2022-11-24T01:16:21.619Z,15.13
2022-11-24T01:18:50.594Z,13.67
2022-11-24T01:21:18.926Z,12.83
2022-11-24T01:23:47.332Z,12.67
2022-11-24T01:26:19.207Z,12.77
2022-11-24T01:28:48.075Z,12.37
2022-11-24T01:31:17.316Z,11.80
2022-11-24T01:33:45.530Z,11.30
2022-11-24T01:36:14.203Z,11.43
2022-11-24T01:38:42.542Z,10.67
2022-11-24T01:41:13.339Z,10.50
2022-11-24T01:43:43.425Z,10.17
2022-11-24T01:46:18.683Z,10.47
2022-11-24T01:48:50.927Z,10.13
2022-11-24T01:51:23.552Z,9.67
2022-11-24T01:53:56.180Z,9.50
2022-11-24T01:56:25.100Z,9.53
2022-11-24T01:58:58.449Z,8.60
2022-11-24T02:01:29.280Z,8.13
2022-11-24T02:03:58.275Z,7.57
2022-11-24T02:06:30.294Z,8.50
2022-11-24T02:09:01.088Z,8.07
2022-11-24T02:11:34.338Z,8.10
2022-11-24T02:14:05.918Z,8.37
2022-11-24T02:16:36.617Z,7.00
2022-11-24T02:19:08.482Z,7.37
2022-11-24T02:21:36.765Z,6.83
2022-11-24T02:24:13.017Z,6.73
2022-11-24T02:26:44.837Z,6.70
2022-11-24T02:29:14.408Z,6.90
2022-11-24T02:31:46.831Z,6.47
2022-11-24T02:34:15.020Z,6.73
2022-11-24T02:36:43.246Z,6.23
2022-11-24T02:39:12.480Z,5.87
2022-11-24T02:41:45.586Z,6.50
2022-11-24T02:44:17.376Z,5.73
2022-11-24T02:46:45.607Z,6.37
2022-11-24T02:49:13.925Z,6.13
2022-11-24T02:51:42.085Z,6.70
2022-11-24T02:54:10.237Z,8.93
2022-11-24T02:56:38.432Z,9.20
2022-11-24T02:59:07.972Z,9.33
2022-11-24T03:01:36.261Z,7.97
2022-11-24T03:04:04.621Z,9.03
2022-11-24T03:06:32.844Z,9.30
2022-11-24T03:09:01.088Z,9.17
2022-11-24T03:11:29.377Z,9.73
2022-11-24T03:13:57.550Z,8.90
2022-11-24T03:16:27.161Z,9.90
2022-11-24T03:18:55.775Z,9.37
2022-11-24T03:21:24.096Z,8.93
2022-11-24T03:23:53.688Z,8.90
2022-11-24T03:26:25.677Z,9.27
2022-11-24T03:28:57.148Z,9.13
2022-11-24T03:31:26.785Z,8.97
2022-11-24T03:33:54.981Z,8.53
2022-11-24T03:36:23.182Z,9.30
2022-11-24T03:38:51.369Z,7.33
2022-11-24T03:41:19.567Z,8.67
2022-11-24T03:43:47.742Z,9.47
2022-11-24T03:46:15.981Z,8.97
2022-11-24T03:48:46.894Z,8.60
2022-11-24T03:51:15.450Z,9.13
2022-11-24T03:53:44.321Z,8.00
2022-11-24T03:56:12.464Z,9.00
2022-11-24T03:58:40.615Z,7.33
2022-11-24T04:01:09.096Z,5.90
2022-11-24T04:03:37.226Z,6.73
2022-11-24T04:06:06.890Z,6.57
2022-11-24T04:08:35.072Z,6.50
2022-11-24T04:11:03.241Z,6.40
2022-11-24T04:13:30.399Z,6.03
2022-11-24T04:15:58.669Z,8.43
2022-11-24T04:18:26.879Z,8.73
2022-11-24T04:20:55.097Z,9.57
2022-11-24T04:23:24.828Z,7.83
2022-11-24T04:25:53.045Z,6.43
2022-11-24T04:28:21.225Z,6.17
2022-11-24T04:30:49.466Z,8.03
2022-11-24T04:33:17.655Z,7.60
2022-11-24T04:35:45.911Z,7.90
2022-11-24T04:38:14.097Z,6.37
2022-11-24T04:41:04.787Z,5.73
2022-11-24T04:43:39.114Z,6.00
2022-11-24T04:46:11.731Z,5.77
2022-11-24T04:48:40.033Z,5.23
2022-11-24T04:51:08.656Z,4.80
2022-11-24T04:53:36.892Z,5.90
2022-11-24T04:56:08.285Z,4.77
2022-11-24T04:59:29.597Z,4.67
2022-11-24T05:01:57.909Z,5.17
2022-11-24T05:04:26.241Z,5.03
2022-11-24T05:06:54.412Z,4.60
2022-11-24T05:09:22.561Z,4.67
2022-11-24T05:11:51.158Z,4.63
2022-11-24T05:14:19.340Z,4.03
2022-11-24T05:16:47.612Z,4.53
2022-11-24T05:19:15.838Z,4.53
2022-11-24T05:21:44.061Z,4.17
2022-11-24T05:24:12.673Z,4.83
2022-11-24T05:26:40.925Z,4.30
2022-11-24T05:29:10.569Z,4.93
2022-11-24T05:31:38.792Z,4.90
2022-11-24T05:34:07.141Z,4.37
2022-11-24T05:36:53.649Z,4.30
2022-11-24T05:39:22.068Z,3.87
2022-11-24T05:41:50.267Z,4.23
2022-11-24T05:44:19.791Z,4.60
2022-11-24T05:46:48.673Z,4.57
2022-11-24T05:49:17.017Z,4.37
2022-11-24T05:51:45.197Z,4.63
2022-11-24T05:54:13.414Z,4.63
2022-11-24T05:56:41.602Z,4.57
2022-11-24T05:59:10.291Z,4.27
2022-11-24T06:01:40.576Z,4.33
2022-11-24T06:04:08.814Z,4.47
2022-11-24T06:07:31.797Z,4.30
2022-11-24T06:10:00.141Z,4.67
2022-11-24T06:12:28.400Z,4.60
2022-11-24T06:14:56.593Z,4.10
2022-11-24T06:17:26.465Z,4.97
2022-11-24T06:19:54.632Z,4.87
2022-11-24T06:22:23.040Z,4.63
2022-11-24T06:24:51.305Z,4.33
2022-11-24T06:27:19.984Z,4.50
2022-11-24T06:29:48.788Z,4.07
2022-11-24T06:32:17.165Z,4.30
2022-11-24T06:34:51.302Z,4.10
2022-11-24T06:37:19.469Z,4.27
2022-11-24T06:41:06.775Z,5.10
2022-11-24T06:43:35.751Z,3.83
2022-11-24T06:46:04.787Z,4.13
2022-11-24T06:48:33.780Z,4.13
2022-11-24T06:51:04.911Z,4.73
2022-11-24T06:53:33.461Z,4.43
2022-11-24T06:56:03.254Z,4.30
2022-11-24T06:58:31.464Z,4.50
2022-11-24T07:00:59.671Z,4.57
2022-11-24T07:03:28.175Z,4.17
2022-11-24T07:06:00.089Z,4.20
2022-11-24T07:08:29.875Z,3.90
2022-11-24T07:10:58.050Z,4.63
2022-11-24T07:13:26.843Z,4.37
2022-11-24T07:15:55.021Z,5.07
2022-11-24T07:18:23.303Z,6.93
2022-11-24T07:20:51.581Z,4.50
2022-11-24T07:23:19.887Z,4.03
2022-11-24T07:25:49.652Z,3.90
2022-11-24T07:28:18.385Z,4.03
2022-11-24T07:30:47.123Z,4.07
2022-11-24T07:33:16.080Z,4.20
2022-11-24T07:35:44.291Z,4.43
2022-11-24T07:38:12.503Z,4.07
2022-11-24T07:40:41.301Z,4.20
2022-11-24T07:43:14.649Z,4.73
2022-11-24T07:45:52.887Z,4.13
2022-11-24T07:48:21.101Z,4.30
2022-11-24T07:50:55.328Z,5.33
2022-11-24T07:53:24.201Z,6.87
2022-11-24T07:55:55.753Z,5.30
2022-11-24T07:58:28.972Z,6.10
2022-11-24T08:01:01.005Z,6.30
2022-11-24T08:03:29.954Z,3.90
2022-11-24T08:08:47.921Z,4.57
2022-11-24T08:11:18.594Z,6.90
2022-11-24T08:13:48.248Z,4.33
2022-11-24T08:16:18.546Z,4.43
2022-11-24T08:18:51.636Z,3.97
2022-11-24T08:21:20.122Z,3.87
2022-11-24T08:23:48.348Z,5.40
2022-11-24T08:26:19.320Z,4.37
2022-11-24T08:28:49.004Z,3.10
2022-11-24T08:31:19.649Z,3.20
2022-11-24T08:33:48.249Z,5.20
2022-11-24T08:36:18.564Z,7.07
2022-11-24T08:38:48.901Z,3.97
2022-11-24T08:41:18.507Z,9.53
2022-11-24T08:43:48.111Z,3.47
2022-11-24T08:46:18.517Z,4.50
2022-11-24T08:48:50.039Z,8.93
2022-11-24T08:51:20.700Z,19.90
2022-11-24T08:53:49.183Z,3.80
2022-11-24T08:56:17.393Z,3.60
2022-11-24T08:58:45.643Z,3.07
2022-11-24T09:01:16.541Z,2.90
2022-11-24T09:03:50.622Z,2.20
2022-11-24T09:06:22.571Z,2.50
2022-11-24T09:08:50.849Z,2.27
2022-11-24T09:11:19.894Z,2.30
2022-11-24T09:13:48.169Z,2.50
2022-11-24T09:16:20.401Z,2.20
2022-11-24T09:18:49.277Z,2.37
2022-11-24T09:21:20.322Z,3.07
2022-11-24T09:23:49.805Z,2.43
2022-11-24T09:26:19.473Z,2.40
2022-11-24T09:28:48.193Z,2.20
2022-11-24T09:31:19.227Z,2.40
2022-11-24T09:33:48.078Z,2.37
2022-11-24T09:36:16.382Z,2.50
2022-11-24T09:38:44.651Z,2.47
2022-11-24T09:41:41.104Z,2.30
2022-11-24T09:44:22.511Z,2.70
2022-11-24T09:47:00.954Z,2.10
2022-11-24T09:49:33.975Z,2.70
2022-11-24T09:52:09.966Z,2.20
2022-11-24T09:54:46.276Z,2.53
2022-11-24T09:57:16.139Z,2.40
2022-11-24T09:59:44.389Z,2.20
2022-11-24T10:02:14.175Z,2.00
2022-11-24T10:04:44.630Z,2.30
2022-11-24T10:07:22.180Z,2.00
2022-11-24T10:09:59.382Z,2.00
2022-11-24T10:12:42.112Z,2.50
2022-11-24T10:15:34.674Z,1.70
2022-11-24T10:18:38.536Z,2.07
2022-11-24T10:21:36.208Z,1.73
2022-11-24T10:24:25.588Z,1.70
2022-11-24T10:26:58.822Z,2.10
2022-11-24T10:29:33.579Z,1.80
2022-11-24T10:32:05.167Z,2.20
2022-11-24T10:34:38.903Z,2.13
2022-11-24T10:37:15.157Z,2.30
2022-11-24T10:39:58.534Z,1.90
2022-11-24T10:42:31.405Z,1.93
2022-11-24T10:45:03.652Z,1.90
2022-11-24T10:47:32.140Z,2.00
2022-11-24T10:50:06.948Z,1.83
2022-11-24T10:52:41.681Z,1.87
2022-11-24T10:55:10.792Z,2.00
2022-11-24T10:57:40.721Z,2.17
2022-11-24T11:00:32.807Z,1.87
2022-11-24T11:03:18.656Z,2.13
2022-11-24T11:05:52.953Z,2.00
2022-11-24T11:08:24.654Z,2.50
2022-11-24T11:11:12.807Z,1.90
2022-11-24T11:13:51.787Z,2.17
2022-11-24T11:16:30.478Z,2.70
2022-11-24T11:19:01.405Z,2.17
2022-11-24T11:21:35.173Z,2.37
2022-11-24T11:24:05.654Z,2.00
2022-11-24T11:27:01.071Z,2.03
2022-11-24T11:35:41.596Z,1.70
2022-11-24T11:38:12.689Z,1.80
2022-11-24T11:40:43.918Z,1.73
2022-11-24T11:43:20.217Z,1.80
2022-11-24T11:45:58.232Z,1.93
2022-11-24T11:48:51.381Z,1.60
2022-11-24T11:51:40.033Z,1.60
2022-11-24T11:54:18.645Z,1.73
2022-11-24T11:56:50.572Z,1.50
2022-11-24T11:59:37.207Z,1.90
2022-11-24T12:02:34.933Z,1.33
2022-11-24T12:05:12.763Z,1.97
2022-11-24T12:07:51.954Z,1.70
2022-11-24T12:10:34.237Z,1.47
2022-11-24T12:13:37.853Z,2.13
2022-11-24T12:16:16.385Z,1.80
2022-11-24T12:18:58.241Z,1.90
2022-11-24T12:21:35.355Z,2.20
2022-11-24T12:24:12.789Z,2.00
2022-11-24T12:27:19.477Z,2.00
2022-11-24T12:30:11.723Z,2.30
2022-11-24T12:33:05.587Z,2.00
2022-11-24T12:35:38.239Z,2.10
2022-11-24T12:38:38.450Z,2.20
2022-11-24T12:44:28.723Z,2.00
2022-11-24T12:47:04.736Z,2.03
2022-11-24T12:49:40.934Z,1.80
2022-11-24T12:52:19.329Z,1.60
2022-11-24T12:54:47.690Z,1.80
2022-11-24T12:57:20.141Z,1.90
2022-11-24T12:59:58.171Z,1.83
2022-11-24T13:02:39.412Z,1.73
2022-11-24T13:05:34.577Z,2.80
2022-11-24T13:08:04.986Z,1.90
2022-11-24T13:11:27.132Z,2.10
2022-11-24T13:14:23.210Z,2.30
2022-11-24T13:17:28.066Z,2.00
2022-11-24T13:19:47.992Z,3.13
2022-11-24T13:22:19.725Z,2.03
2022-11-24T13:25:13.134Z,2.00
2022-11-24T13:27:44.321Z,2.10
2022-11-24T13:30:52.493Z,2.10
2022-11-24T13:33:37.133Z,2.00
2022-11-24T13:36:33.664Z,1.90
2022-11-24T13:39:03.673Z,1.67
2022-11-24T13:42:08.371Z,2.00
2022-11-24T13:44:53.915Z,2.43
2022-11-24T13:48:16.415Z,2.23
2022-11-24T13:51:25.363Z,1.93
2022-11-24T13:53:56.783Z,2.33
2022-11-24T13:56:28.638Z,2.10
2022-11-24T13:58:59.422Z,2.10
2022-11-24T14:01:29.375Z,2.23
2022-11-24T14:07:06.762Z,2.00
2022-11-24T14:09:41.799Z,1.90
2022-11-24T14:12:16.035Z,1.97
2022-11-24T14:14:45.747Z,2.30
2022-11-24T14:17:19.930Z,4.47
2022-11-24T14:19:50.069Z,2.10
2022-11-24T14:22:21.845Z,1.97
2022-11-24T14:24:57.368Z,2.33
2022-11-24T14:27:30.422Z,2.00
2022-11-24T14:30:01.107Z,1.70
2022-11-24T14:32:29.783Z,2.43
2022-11-24T14:34:58.624Z,2.37
2022-11-24T14:37:28.307Z,2.10
2022-11-24T14:39:57.026Z,2.27
2022-11-24T14:42:28.347Z,2.27
2022-11-24T14:44:58.714Z,2.13
2022-11-24T14:47:32.453Z,2.20
2022-11-24T14:50:12.229Z,1.90
2022-11-24T14:52:48.962Z,2.07
2022-11-24T14:55:28.563Z,2.30
2022-11-24T14:57:57.112Z,2.23
2022-11-24T15:00:30.888Z,2.20
2022-11-24T15:03:16.984Z,1.97
2022-11-24T15:05:54.014Z,1.93
2022-11-24T15:08:25.161Z,2.30
2022-11-24T15:10:59.042Z,2.47
2022-11-24T15:13:30.435Z,1.93
2022-11-24T15:16:02.760Z,2.20
2022-11-24T15:18:38.510Z,1.93
2022-11-24T15:21:07.189Z,2.50
2022-11-24T15:23:41.850Z,2.30
2022-11-24T15:26:30.793Z,2.00
2022-11-24T15:29:00.352Z,2.77
2022-11-24T15:31:28.523Z,2.10
2022-11-24T15:33:56.796Z,2.37
2022-11-24T15:36:25.655Z,2.30
2022-11-24T15:38:55.254Z,2.30
2022-11-24T15:41:28.737Z,2.70
2022-11-24T15:43:59.249Z,2.73
2022-11-24T15:46:28.021Z,2.17
2022-11-24T15:48:57.193Z,2.53
2022-11-24T15:51:27.960Z,2.87
2022-11-24T15:54:23.806Z,2.47
2022-11-24T15:56:52.090Z,2.80
2022-11-24T15:59:21.379Z,2.27
2022-11-24T16:02:17.243Z,1.93
2022-11-24T16:04:45.748Z,2.53
2022-11-24T16:07:13.985Z,2.20
2022-11-24T16:09:43.776Z,5.10
2022-11-24T16:12:11.963Z,2.70
2022-11-24T16:14:40.299Z,2.87
2022-11-24T16:17:39.057Z,2.70
2022-11-24T16:20:08.648Z,3.10
2022-11-24T16:22:36.825Z,2.90
2022-11-24T16:25:07.308Z,2.83
2022-11-24T16:27:35.579Z,3.17
2022-11-24T16:30:03.921Z,3.30
2022-11-24T16:32:32.081Z,3.40
2022-11-24T16:35:05.988Z,3.97
2022-11-24T16:37:34.237Z,3.27
2022-11-24T16:40:02.744Z,3.10
2022-11-24T16:42:32.665Z,3.60
2022-11-24T16:45:00.936Z,3.47
2022-11-24T16:47:29.111Z,3.30
2022-11-24T16:49:57.425Z,4.00
2022-11-24T16:52:25.590Z,3.67
2022-11-24T16:54:53.810Z,3.37
2022-11-24T16:57:22.074Z,4.10
2022-11-24T16:59:51.648Z,4.13
2022-11-24T17:02:19.916Z,4.00
2022-11-24T17:04:49.668Z,4.10
2022-11-24T17:07:17.852Z,4.70
2022-11-24T17:09:46.144Z,4.47
2022-11-24T17:12:14.327Z,4.30
2022-11-24T17:14:44.343Z,4.30
2022-11-24T17:17:18.628Z,4.13
2022-11-24T17:19:46.840Z,5.10
2022-11-24T17:22:15.055Z,4.87
2022-11-24T17:24:43.323Z,5.13
2022-11-24T17:27:11.504Z,5.50
2022-11-24T17:29:39.748Z,5.10
2022-11-24T17:32:08.147Z,6.23
2022-11-24T17:34:37.955Z,5.77
2022-11-24T17:37:06.268Z,4.80
2022-11-24T17:39:34.574Z,4.93
2022-11-24T17:42:02.909Z,4.80
2022-11-24T17:44:31.974Z,4.23
2022-11-24T17:47:00.873Z,4.47
2022-11-24T17:49:29.054Z,4.80
2022-11-24T17:51:58.608Z,4.87
2022-11-24T17:57:14.970Z,5.00
2022-11-24T17:59:43.781Z,5.43
2022-11-24T18:02:12.065Z,6.40
2022-11-24T18:04:40.381Z,6.20
2022-11-24T18:07:10.095Z,6.30
2022-11-24T18:09:39.052Z,6.00
2022-11-24T18:12:07.935Z,6.03
2022-11-24T18:14:36.971Z,5.70
2022-11-24T18:17:05.414Z,6.90
2022-11-24T18:19:33.686Z,7.77
2022-11-24T18:22:02.003Z,7.57
2022-11-24T18:25:25.284Z,7.77
2022-11-24T18:27:54.907Z,7.13
2022-11-24T18:30:23.102Z,7.97
2022-11-24T18:32:51.325Z,8.87
2022-11-24T18:35:19.733Z,8.90
2022-11-24T18:38:13.733Z,9.03
2022-11-24T18:40:41.968Z,8.80
2022-11-24T18:43:40.903Z,9.60
2022-11-24T18:46:11.700Z,8.47
2022-11-24T18:48:39.949Z,9.33
2022-11-24T18:51:08.692Z,8.83
2022-11-24T18:53:36.932Z,8.80
2022-11-24T18:56:07.405Z,8.87
2022-11-24T18:58:36.736Z,9.37
2022-11-24T19:01:11.511Z,9.43
2022-11-24T19:04:34.804Z,9.23
2022-11-24T19:07:03.149Z,9.80
2022-11-24T19:09:31.353Z,9.33
2022-11-24T19:12:00.050Z,9.43
2022-11-24T19:14:28.357Z,9.57
2022-11-24T19:16:58.009Z,8.33
2022-11-24T19:19:46.755Z,8.53
2022-11-24T19:22:15.762Z,8.07
2022-11-24T19:24:45.131Z,8.17
2022-11-24T19:27:13.322Z,8.60
2022-11-24T19:29:43.425Z,8.77
2022-11-24T19:32:13.156Z,9.13
2022-11-24T19:34:41.722Z,8.87
2022-11-24T19:37:09.914Z,8.20
2022-11-24T19:39:38.070Z,9.13
2022-11-24T19:42:06.394Z,8.73
2022-11-24T19:45:01.849Z,8.00
2022-11-24T19:47:31.495Z,7.67
2022-11-24T19:49:59.735Z,8.17
2022-11-24T19:52:27.953Z,8.13
2022-11-24T19:54:56.154Z,8.37
2022-11-24T19:57:24.394Z,8.57
2022-11-24T19:59:52.565Z,8.83
2022-11-24T20:02:20.790Z,9.50
2022-11-24T20:04:50.410Z,9.37
2022-11-24T20:07:20.383Z,9.50
2022-11-24T20:09:48.829Z,10.13
2022-11-24T20:12:17.088Z,11.10
2022-11-24T20:14:46.520Z,10.13
2022-11-24T20:17:40.087Z,9.20
2022-11-24T20:20:11.653Z,9.33
2022-11-24T20:22:40.301Z,10.40
2022-11-24T20:25:10.804Z,9.97
2022-11-24T20:27:39.080Z,10.87
2022-11-24T20:30:09.133Z,11.27
2022-11-24T20:32:37.769Z,11.93
2022-11-24T20:35:06.649Z,12.67
2022-11-24T20:37:36.408Z,12.77
2022-11-24T20:44:21.237Z,12.10
2022-11-24T20:46:50.436Z,10.97
2022-11-24T20:49:21.870Z,10.10
2022-11-24T20:51:54.381Z,9.90
2022-11-24T20:54:24.627Z,10.27
2022-11-24T20:56:53.677Z,11.03
2022-11-24T20:59:23.358Z,13.33
2022-11-24T21:01:55.202Z,12.60
2022-11-24T21:04:25.830Z,15.63
2022-11-24T21:06:54.619Z,16.50
2022-11-24T21:09:24.725Z,16.40
2022-11-24T21:11:52.923Z,16.43
2022-11-24T21:14:21.289Z,15.77
2022-11-24T21:16:49.484Z,13.93
2022-11-24T21:19:18.759Z,14.90
2022-11-24T21:21:47.751Z,14.57
2022-11-24T21:24:17.790Z,14.10
2022-11-24T21:26:49.080Z,14.57
2022-11-24T21:29:20.226Z,14.63
2022-11-24T21:31:48.519Z,15.17
2022-11-24T21:34:18.543Z,16.17
2022-11-24T21:36:47.268Z,14.37
2022-11-24T21:39:16.883Z,15.70
2022-11-24T21:41:45.152Z,15.30
2022-11-24T21:44:15.656Z,15.07
2022-11-24T21:46:51.042Z,15.27
2022-11-24T21:49:22.540Z,16.63
2022-11-24T21:51:55.453Z,18.17
2022-11-24T21:54:24.055Z,17.50
2022-11-24T21:56:52.216Z,18.23
2022-11-24T21:59:22.835Z,21.43
2022-11-24T22:01:51.547Z,21.63
2022-11-24T22:04:19.754Z,23.77
2022-11-24T22:06:47.942Z,19.97
2022-11-24T22:09:18.259Z,20.53
2022-11-24T22:11:49.064Z,20.40
2022-11-24T22:14:17.306Z,19.07
2022-11-24T22:16:47.248Z,20.03
2022-11-24T22:19:15.499Z,19.87
2022-11-24T22:21:43.717Z,21.57
2022-11-24T22:24:12.479Z,21.00
2022-11-24T22:26:40.627Z,20.37
2022-11-24T22:29:08.944Z,22.50
2022-11-24T22:31:37.237Z,21.53
2022-11-24T22:34:07.359Z,21.00
2022-11-24T22:36:37.090Z,21.40
2022-11-24T22:39:07.062Z,18.90
2022-11-24T22:41:36.894Z,18.73
2022-11-24T22:44:05.652Z,18.00
2022-11-24T22:46:33.946Z,18.37
2022-11-24T22:49:02.821Z,18.27
2022-11-24T22:51:34.588Z,18.83
2022-11-24T22:54:03.968Z,21.70
2022-11-24T22:56:32.797Z,22.00
2022-11-24T22:59:01.737Z,22.27
2022-11-24T23:01:31.297Z,21.27
2022-11-24T23:04:00.300Z,22.03
2022-11-24T23:06:30.251Z,22.13
2022-11-24T23:09:01.176Z,21.60
2022-11-24T23:11:37.201Z,20.33
2022-11-24T23:14:07.101Z,20.47
2022-11-24T23:16:35.510Z,22.37
2022-11-24T23:19:03.848Z,23.40
2022-11-24T23:21:33.849Z,22.43
2022-11-24T23:24:04.667Z,21.33
2022-11-24T23:26:35.317Z,21.23
2022-11-24T23:29:03.611Z,21.27
2022-11-24T23:31:32.205Z,20.40
2022-11-24T23:34:02.063Z,20.43
2022-11-24T23:36:31.176Z,20.03
2022-11-24T23:39:04.627Z,19.63
2022-11-24T23:41:33.028Z,19.13
2022-11-24T23:44:01.496Z,19.00
2022-11-24T23:46:30.256Z,18.43
2022-11-24T23:48:58.898Z,19.10
2022-11-24T23:51:28.792Z,19.07
2022-11-24T23:53:58.145Z,20.40
2022-11-24T23:56:29.044Z,20.63
2022-11-24T23:58:57.276Z,20.60
